Century, Florida
Current Conditions -  °F | °C
As of 3:56 PM on Friday 31 Oct 2014 (Local Time) from KNSE Reporting Station
Scattered Clouds Scattered Clouds  
Wind Chill: 73°   Ceiling: Unl
Heat Index: 73°   Visibility: 10mi
Dew Point: 45°   Wind: 14mph
Humidity: 37%   Direction: 290°WNW
Pressure: 29.91"   Gusts: NA
Location:  30.97°N, 87.26°W
Report Text: KNSE 312056Z 29012KT 10SM FEW015 SCT040 SCT070 23/07 A2991 RMK AO2 SLP116 T02280072 55014 $
Loading
Personal Weather Stations






























Interactive Weather Map
Tropical Storm Tracking
New forecast layout! Learn more

10-Day Weather Forecast

Advertisements
Track Severe Weather on mobile